Windsor, Ontario

8:22 PM EST on February 09, 2016 (GMT -0500)
APRSWXNET | | Change Station
CLOSE
Current Station
Personal Weather Station
Location: Detroit, MI
Elevation: 622 ft
Nearby Weather Stations

Elev 622 ft 42.32 °N, 82.98 °W | Updated 26 minutes ago

Light Snow
Light Snow Mist
26 °F
Feels Like 20 °F
N
5
Wind Variable Wind from West
Gusts 11.0 mph

Today
High -- | Low -- °F
--% Chance of Precip.
Yesterday
High -- | Low -- °F
Precip. -- in
Pressure 29.69 in
Visibility 1.5 miles
Clouds Scattered Clouds 1500 ft
Overcast 2200 ft
Windchill 20 °F
Dew Point 24 °F
Humidity 92%
Rainfall in
Snow Depth Not available.
7:36 AM 5:56 PM
Waxing Crescent, 3% visible
SPECI KDET 100117Z 30008G20KT 1 1/2SM -SN BR SCT015 OVC022 M03/M06 A2969 RMK AO2 TWR VIS 3 P0000 T10331056
Pressure 29.69 in
Visibility 1.5 miles
Clouds Scattered Clouds 1500 ft
Overcast 2200 ft
Windchill 20 °F
Dew Point 24 °F
Humidity 92%
Rainfall in
Snow Depth Not available.
7:36 AM 5:56 PM
Waxing Crescent, 3% visible
SPECI KDET 100117Z 30008G20KT 1 1/2SM -SN BR SCT015 OVC022 M03/M06 A2969 RMK AO2 TWR VIS 3 P0000 T10331056

10-Day Weather Forecast

Almanac

Astronomy

Feb. 09, 2016 Rise Set
Actual Time
Civil Twilight
Nautical Twilight
Astronomical Twilight
Moon
Length of Visible Light
Length of Day
Tomorrow will be .
, % of the Moon is Illuminated

Today's Extremes

Country Highs Country Lows

Community

WunderPhotos

Upload Photos

1,891,758 photos uploaded!

WunderBlog® & News

Nearby

Air Quality

  Air Quality AQ Index Pollutant
Not available.

Snow Depth

Station Depth Elevation

Earthquake Activity

City Distance Mag. Time & Date
Minimum magnitude displayed is 2.5.

Coastal Water Temperatures

Place Temperature

Stations

Nearby Weather Stations

Station Location Temp. Windchill Dew Point Humidity Wind Precip. Elev Updated Type
                   

Watches & Warnings

There are currently no watches in effect.